Search for airport 
image banner adimage banner adimage banner ad
image banner ad

4CL7 - Inyo County Sheriff Search&Rescue

Located in Bishop, United States

ICAO - 4CL7, IATA -

Data provided by Airmate  

General information

Coordinates: N37°21'56" W118°22'3"
Elevation is 4120 feet MSL.
Magnetic variation is 15° East
View others Airports in California

Operational data

Special qualification required
Current time UTC:
Current local time:
Weather at : KBIH - Bishop ( 1 km )
METAR: KBIH 212156Z AUTO 16009G17KT 10SM CLR 32/M07 A3024 RMK AO2 SLP196 T03171072
TAF: KBIH 211720Z 2118/2218 VRB04KT P6SM SKC FM212000 16010KT P6SM SKC FM212200 16012G20KT P6SM SKC FM220300 16008KT P6SM SKC FM220600 31006KT P6SM FEW250
View NOTAMs / SUP AIP / TFR affecting this airport [VIEW]
Communications frequencies: [VIEW]

Runways:

Airport contact information

Address: Bishop United States

Satellite view of 4CL7